Time;durP1;ratioP1;P1;durP2;ratioP2;P2;SDS_P1;SDS_P2;PMS_P1;PMS_P2;Temp;Humidity;BMP_temperature;BMP_pressure;BME280_temperature;BME280_humidity;BME280_pressure;Samples;Min_cycle;Max_cycle;Signal;HPM_P1;HPM_P2
2023/07/20 00:01:27;;;;;;;6.00;3.20;;;14.80;99.90;;;;;;5131540;27;20038;-56
2023/07/20 00:03:55;;;;;;;5.15;3.40;;;14.90;99.90;;;;;;5130258;27;20034;-56
2023/07/20 00:06:22;;;;;;;5.10;3.85;;;14.90;99.90;;;;;;5129997;27;20503;-56
2023/07/20 00:08:48;;;;;;;6.97;4.10;;;15.00;99.90;;;;;;5130881;27;20135;-56
2023/07/20 00:11:13;;;;;;;6.38;3.90;;;14.70;99.90;;;;;;5115038;27;20035;-56
2023/07/20 00:13:40;;;;;;;5.68;3.85;;;15.00;99.90;;;;;;5132114;27;20103;-56
2023/07/20 00:16:05;;;;;;;6.85;4.00;;;14.90;99.90;;;;;;5132231;27;20125;-57
2023/07/20 00:18:31;;;;;;;5.80;3.88;;;14.80;99.90;;;;;;5134317;27;20897;-56
2023/07/20 00:20:57;;;;;;;4.78;3.42;;;14.80;99.90;;;;;;5136351;27;20138;-56
2023/07/20 00:23:23;;;;;;;6.03;3.58;;;14.80;99.90;;;;;;5134546;27;20043;-56
2023/07/20 00:25:49;;;;;;;6.55;3.60;;;14.60;99.90;;;;;;5116993;27;20558;-56
2023/07/20 00:28:14;;;;;;;4.68;3.45;;;14.80;99.90;;;;;;5134630;27;20629;-56
2023/07/20 00:30:40;;;;;;;5.97;3.55;;;14.70;99.90;;;;;;5135685;27;20035;-56
2023/07/20 00:33:11;;;;;;;5.00;3.28;;;14.70;99.90;;;;;;5133328;27;20324;-56
2023/07/20 00:35:38;;;;;;;5.35;2.88;;;14.30;99.90;;;;;;5135445;27;20504;-56
2023/07/20 00:38:05;;;;;;;4.55;2.95;;;14.50;99.90;;;;;;5133394;27;20817;-56
2023/07/20 00:40:41;;;;;;;5.40;2.85;;;14.60;99.90;;;;;;5132657;27;20455;-57
2023/07/20 00:43:07;;;;;;;5.47;3.10;;;14.50;99.90;;;;;;5132252;27;20056;-56
2023/07/20 00:45:34;;;;;;;4.82;3.17;;;14.50;99.90;;;;;;5133573;27;20108;-56
2023/07/20 00:48:02;;;;;;;7.90;3.35;;;14.30;99.90;;;;;;5133020;27;20462;-57
2023/07/20 00:50:28;;;;;;;7.80;3.53;;;14.10;99.90;;;;;;5134468;27;20407;-56
2023/07/20 00:52:57;;;;;;;7.00;3.58;;;15.20;99.90;;;;;;5133632;27;20047;-56
2023/07/20 00:55:28;;;;;;;5.72;3.40;;;14.20;99.90;;;;;;5134985;27;20042;-56
2023/07/20 00:57:53;;;;;;;5.50;3.45;;;14.00;99.90;;;;;;5133077;27;20400;-56
2023/07/20 01:00:19;;;;;;;4.38;2.92;;;14.00;99.90;;;;;;5132933;27;20091;-56
2023/07/20 01:02:46;;;;;;;5.57;3.40;;;14.10;99.90;;;;;;5132604;27;20096;-57
2023/07/20 01:05:16;;;;;;;13.90;3.40;;;13.80;99.90;;;;;;5134338;27;20107;-56
2023/07/20 01:08:11;;;;;;;5.45;3.42;;;13.70;99.90;;;;;;5133797;27;20046;-56
2023/07/20 01:10:50;;;;;;;5.57;3.40;;;13.60;99.90;;;;;;5132344;27;20057;-56
2023/07/20 01:13:19;;;;;;;5.82;3.65;;;13.60;99.90;;;;;;5132499;27;20570;-56
2023/07/20 01:16:01;;;;;;;4.75;3.70;;;13.60;99.90;;;;;;5133187;27;20055;-56
2023/07/20 01:18:27;;;;;;;6.00;3.38;;;13.60;99.90;;;;;;5131115;27;20035;-56
2023/07/20 01:21:06;;;;;;;5.60;3.08;;;13.60;99.90;;;;;;5132113;27;20062;-56
2023/07/20 01:24:18;;;;;;;4.50;2.92;;;13.40;99.90;;;;;;5132988;27;20597;-56
2023/07/20 01:27:18;;;;;;;4.90;3.10;;;13.40;99.90;;;;;;5097591;27;20039;-56
2023/07/20 01:29:55;;;;;;;5.63;3.33;;;13.30;99.90;;;;;;5133507;27;20069;-56
2023/07/20 01:32:23;;;;;;;7.30;3.00;;;13.30;99.90;;;;;;5134676;27;20042;-56
2023/07/20 01:34:52;;;;;;;6.90;3.20;;;13.20;99.90;;;;;;5132302;27;20042;-56
2023/07/20 01:37:20;;;;;;;5.30;2.85;;;13.10;99.90;;;;;;5133319;27;20381;-56
2023/07/20 01:39:46;;;;;;;6.00;3.28;;;13.20;99.90;;;;;;5133748;27;20332;-56
2023/07/20 01:42:12;;;;;;;4.13;2.38;;;13.00;99.90;;;;;;5133972;27;20039;-56
2023/07/20 01:44:39;;;;;;;5.25;2.45;;;12.90;99.90;;;;;;5115742;27;20375;-56
2023/07/20 01:47:04;;;;;;;3.63;2.20;;;12.90;99.90;;;;;;5134155;27;20057;-56
2023/07/20 01:49:30;;;;;;;5.68;3.10;;;12.70;99.90;;;;;;5131355;27;20039;-56
2023/07/20 01:51:56;;;;;;;4.05;2.50;;;12.70;99.90;;;;;;5133540;27;20082;-56
2023/07/20 01:54:22;;;;;;;7.82;3.00;;;12.70;99.90;;;;;;5133671;27;20034;-56
2023/07/20 01:56:47;;;;;;;3.80;2.70;;;12.70;99.90;;;;;;5133058;27;20611;-56
2023/07/20 01:59:13;;;;;;;4.90;3.20;;;12.40;99.90;;;;;;5130877;27;20193;-56
2023/07/20 02:01:39;;;;;;;5.72;2.50;;;12.40;99.90;;;;;;5133842;27;20050;-56
2023/07/20 02:04:04;;;;;;;3.63;2.15;;;12.50;99.90;;;;;;5131093;27;20140;-56
2023/07/20 02:06:30;;;;;;;3.67;2.42;;;12.30;99.90;;;;;;5131284;27;20035;-56
2023/07/20 02:08:56;;;;;;;3.88;2.28;;;12.50;99.90;;;;;;5131409;27;20459;-56
2023/07/20 02:11:22;;;;;;;5.65;2.40;;;12.40;99.90;;;;;;5133317;27;20039;-56
2023/07/20 02:13:47;;;;;;;2.90;1.98;;;12.20;99.90;;;;;;5131711;27;20510;-57
2023/07/20 02:16:13;;;;;;;3.40;1.80;;;12.40;99.90;;;;;;5132193;27;20127;-56
2023/07/20 02:18:39;;;;;;;4.65;1.77;;;12.10;99.90;;;;;;5113900;27;20513;-56
2023/07/20 02:21:04;;;;;;;4.82;2.30;;;12.20;99.90;;;;;;5105792;27;20053;-56
2023/07/20 02:23:30;;;;;;;3.17;2.00;;;12.00;99.90;;;;;;5131245;27;20687;-57
2023/07/20 02:25:56;;;;;;;2.75;1.77;;;12.00;99.90;;;;;;5132688;27;20545;-55
2023/07/20 02:28:22;;;;;;;3.63;2.03;;;12.00;99.90;;;;;;5131402;27;20050;-56
2023/07/20 02:30:49;;;;;;;2.45;1.30;;;11.90;99.90;;;;;;5112350;27;20352;-56
2023/07/20 02:33:15;;;;;;;2.03;0.90;;;11.80;99.90;;;;;;5131750;27;20083;-56
2023/07/20 02:35:41;;;;;;;3.33;1.70;;;11.80;99.90;;;;;;5133691;27;20034;-56
2023/07/20 02:38:06;;;;;;;1.88;1.25;;;11.90;99.90;;;;;;5113265;27;20031;-56
2023/07/20 02:40:32;;;;;;;3.17;2.03;;;11.60;99.90;;;;;;5130046;27;20186;-56
2023/07/20 02:42:58;;;;;;;4.28;1.90;;;11.80;99.90;;;;;;5130912;27;20519;-56
2023/07/20 02:45:24;;;;;;;3.85;1.80;;;11.80;99.90;;;;;;5132277;27;20045;-56
2023/07/20 02:47:49;;;;;;;3.58;1.90;;;11.70;99.90;;;;;;5130324;27;20081;-56
2023/07/20 02:50:15;;;;;;;4.97;2.00;;;11.60;99.90;;;;;;5131505;27;20070;-56
2023/07/20 02:52:41;;;;;;;2.63;1.65;;;11.50;99.90;;;;;;5130711;27;21921;-55
2023/07/20 02:55:07;;;;;;;3.83;2.00;;;11.50;99.90;;;;;;5133598;27;20111;-56
2023/07/20 02:57:33;;;;;;;4.22;1.95;;;11.40;99.90;;;;;;5131348;27;20178;-56
2023/07/20 02:59:59;;;;;;;3.28;1.90;;;11.50;99.90;;;;;;5131167;27;20471;-56
2023/07/20 03:02:25;;;;;;;5.03;1.50;;;11.50;99.90;;;;;;5133802;27;20537;-56
2023/07/20 03:04:50;;;;;;;2.78;0.98;;;11.30;99.90;;;;;;5131603;27;20510;-56
2023/07/20 03:07:16;;;;;;;2.75;1.23;;;11.40;99.90;;;;;;5131360;27;20042;-56
2023/07/20 03:09:43;;;;;;;1.10;0.80;;;11.20;99.90;;;;;;5131417;27;20063;-56
2023/07/20 03:12:09;;;;;;;1.25;0.90;;;11.40;99.90;;;;;;5132175;27;20126;-56
2023/07/20 03:14:35;;;;;;;1.63;1.23;;;11.40;99.90;;;;;;5132792;27;20445;-56
2023/07/20 03:17:00;;;;;;;2.72;1.63;;;11.20;99.90;;;;;;5131008;27;20126;-57
2023/07/20 03:19:27;;;;;;;3.28;1.90;;;11.10;99.90;;;;;;5131113;27;20039;-56
2023/07/20 03:21:53;;;;;;;2.95;1.80;;;11.10;99.90;;;;;;5130086;27;20564;-54
2023/07/20 03:24:19;;;;;;;3.88;1.88;;;11.20;99.90;;;;;;5133326;27;20047;-55
2023/07/20 03:26:45;;;;;;;4.85;2.10;;;11.10;99.90;;;;;;5113583;27;20130;-56
2023/07/20 03:29:10;;;;;;;4.07;1.95;;;11.10;99.90;;;;;;5131434;27;20042;-56
2023/07/20 03:31:36;;;;;;;2.95;1.45;;;11.10;99.90;;;;;;5129365;27;21718;-56
2023/07/20 03:34:02;;;;;;;3.30;1.48;;;11.10;99.90;;;;;;5130844;27;20039;-56
2023/07/20 03:36:28;;;;;;;3.90;1.25;;;11.20;99.90;;;;;;5129612;27;20030;-56
2023/07/20 03:38:53;;;;;;;1.80;1.00;;;10.80;99.90;;;;;;5130855;27;20566;-56
2023/07/20 03:41:19;;;;;;;0.90;0.80;;;11.00;99.90;;;;;;5130670;27;20042;-56
2023/07/20 03:43:45;;;;;;;1.33;0.70;;;10.90;99.90;;;;;;5130245;27;20335;-56
2023/07/20 03:46:11;;;;;;;2.15;0.80;;;10.90;99.90;;;;;;5129529;27;20106;-56
2023/07/20 03:48:37;;;;;;;1.40;0.93;;;10.70;99.90;;;;;;5131525;27;20084;-56
2023/07/20 03:51:02;;;;;;;5.13;1.67;;;10.60;99.90;;;;;;5130364;27;20046;-56
2023/07/20 03:53:28;;;;;;;2.97;1.50;;;12.50;99.90;;;;;;5134874;27;20030;-56
2023/07/20 03:55:54;;;;;;;3.22;1.58;;;10.70;99.90;;;;;;5135189;27;20043;-56
2023/07/20 03:58:21;;;;;;;5.05;1.60;;;11.00;99.90;;;;;;5116098;27;20095;-56
2023/07/20 04:00:50;;;;;;;1.98;1.23;;;10.80;99.90;;;;;;5133547;27;20061;-56
2023/07/20 04:03:16;;;;;;;3.55;1.30;;;10.70;99.90;;;;;;5133790;27;20384;-56
2023/07/20 04:05:42;;;;;;;2.78;1.20;;;10.70;99.90;;;;;;5133510;27;20100;-56
2023/07/20 04:08:08;;;;;;;2.53;1.40;;;10.90;99.90;;;;;;5134975;27;20430;-56
2023/07/20 04:10:33;;;;;;;4.95;1.80;;;10.90;99.90;;;;;;5134688;27;20341;-57
2023/07/20 04:13:00;;;;;;;3.95;1.75;;;10.80;99.90;;;;;;5134041;27;20399;-56
2023/07/20 04:15:26;;;;;;;4.65;2.08;;;11.00;99.90;;;;;;5133353;27;20061;-56
2023/07/20 04:17:52;;;;;;;3.80;2.42;;;10.80;99.90;;;;;;5135097;27;20600;-57
2023/07/20 04:20:18;;;;;;;3.85;1.98;;;10.90;99.90;;;;;;5135413;27;20042;-56
2023/07/20 04:22:44;;;;;;;3.83;2.15;;;10.80;99.90;;;;;;5134543;27;20155;-56
2023/07/20 04:25:09;;;;;;;3.88;2.25;;;10.80;99.90;;;;;;5134447;27;20049;-56
2023/07/20 04:27:36;;;;;;;4.82;2.30;;;11.20;99.90;;;;;;5133435;27;21075;-58
2023/07/20 04:30:03;;;;;;;4.65;2.22;;;10.90;99.90;;;;;;5134586;27;20071;-57
2023/07/20 04:32:29;;;;;;;5.07;2.30;;;11.10;99.90;;;;;;5134295;27;20150;-57
2023/07/20 04:34:55;;;;;;;3.78;1.95;;;11.10;99.90;;;;;;5131677;27;20039;-55
2023/07/20 04:37:20;;;;;;;4.03;2.15;;;10.90;99.90;;;;;;5134338;27;20038;-57
2023/07/20 04:39:47;;;;;;;5.07;2.30;;;11.00;99.90;;;;;;5133442;27;20305;-57
2023/07/20 04:42:12;;;;;;;2.80;1.80;;;11.10;99.90;;;;;;5132209;27;20073;-56
2023/07/20 04:44:38;;;;;;;6.07;2.65;;;11.00;99.90;;;;;;5114705;27;20059;-56
2023/07/20 04:47:04;;;;;;;6.32;2.30;;;11.10;99.90;;;;;;5134806;27;20062;-56
2023/07/20 04:49:30;;;;;;;6.57;2.17;;;11.10;99.90;;;;;;5131286;27;20133;-56
2023/07/20 04:51:56;;;;;;;4.57;1.90;;;11.40;99.90;;;;;;5132909;27;20054;-57
2023/07/20 04:54:21;;;;;;;4.40;2.50;;;11.30;99.90;;;;;;5133077;27;20123;-57
2023/07/20 04:56:47;;;;;;;6.25;3.03;;;11.40;99.90;;;;;;5136569;27;20046;-57
2023/07/20 04:59:13;;;;;;;6.43;3.30;;;11.40;99.90;;;;;;5131684;27;20030;-56
2023/07/20 05:01:39;;;;;;;6.45;3.30;;;11.60;99.90;;;;;;5133333;27;20988;-56
2023/07/20 05:04:04;;;;;;;7.00;3.10;;;11.50;99.90;;;;;;5132010;27;20042;-56
2023/07/20 05:06:30;;;;;;;5.65;3.00;;;12.70;99.90;;;;;;5115566;27;20057;-57
2023/07/20 05:08:56;;;;;;;7.80;2.70;;;11.80;99.90;;;;;;5132332;27;20039;-56
2023/07/20 05:11:21;;;;;;;5.82;3.10;;;11.90;99.90;;;;;;5132190;27;20027;-57
2023/07/20 05:13:47;;;;;;;4.63;2.67;;;12.00;99.90;;;;;;5132253;27;20519;-56
2023/07/20 05:16:13;;;;;;;5.43;3.42;;;12.00;99.90;;;;;;5113671;27;20035;-56
2023/07/20 05:18:39;;;;;;;7.30;2.80;;;12.20;99.90;;;;;;5133270;27;20142;-57
2023/07/20 05:21:05;;;;;;;4.20;2.83;;;12.30;99.90;;;;;;5132906;27;20076;-56
2023/07/20 05:23:31;;;;;;;5.95;3.00;;;12.50;99.90;;;;;;5131088;27;20064;-56
2023/07/20 05:25:58;;;;;;;4.63;3.10;;;12.50;99.90;;;;;;5134856;27;20043;-56
2023/07/20 05:28:27;;;;;;;7.25;3.17;;;12.80;99.90;;;;;;5132811;27;20141;-57
2023/07/20 05:30:53;;;;;;;4.45;3.00;;;13.00;99.90;;;;;;5115518;27;20058;-56
2023/07/20 05:33:20;;;;;;;7.60;5.45;;;13.10;99.90;;;;;;5132618;27;20446;-57
2023/07/20 05:35:46;;;;;;;8.48;6.07;;;13.30;99.90;;;;;;5134160;27;20055;-57
2023/07/20 05:38:12;;;;;;;7.05;5.40;;;13.60;99.90;;;;;;5132235;27;20043;-56
2023/07/20 05:40:40;;;;;;;5.50;3.50;;;13.50;99.90;;;;;;5134112;27;20046;-57
2023/07/20 05:43:05;;;;;;;6.10;3.47;;;13.50;99.90;;;;;;5134836;27;20047;-56
2023/07/20 05:45:31;;;;;;;5.68;3.65;;;13.80;99.90;;;;;;5132433;27;20027;-57
2023/07/20 05:47:57;;;;;;;7.68;4.80;;;13.90;99.90;;;;;;5131770;27;20046;-57
2023/07/20 05:50:23;;;;;;;5.28;3.75;;;14.00;99.90;;;;;;5133265;27;20043;-57
2023/07/20 05:52:48;;;;;;;8.45;3.85;;;14.10;99.90;;;;;;5132859;27;20047;-57
2023/07/20 05:55:14;;;;;;;8.52;3.30;;;14.20;99.90;;;;;;5133217;27;20046;-56
2023/07/20 05:57:42;;;;;;;6.78;3.22;;;14.30;99.90;;;;;;5132784;27;20119;-57
2023/07/20 06:00:08;;;;;;;4.25;3.03;;;14.30;99.90;;;;;;5132086;27;20061;-57
2023/07/20 06:02:34;;;;;;;4.70;2.78;;;14.70;99.90;;;;;;5129964;27;20637;-55
2023/07/20 06:05:00;;;;;;;6.15;2.65;;;14.70;99.90;;;;;;5131064;27;20046;-57
2023/07/20 06:07:25;;;;;;;5.38;2.72;;;14.70;99.90;;;;;;5113271;27;20122;-56
2023/07/20 06:09:51;;;;;;;6.38;2.53;;;14.80;99.90;;;;;;5132177;27;20039;-57
2023/07/20 06:12:17;;;;;;;4.80;2.60;;;15.00;99.90;;;;;;5111014;27;20129;-57
2023/07/20 06:14:43;;;;;;;6.75;2.47;;;15.10;99.90;;;;;;5131150;27;20046;-57
2023/07/20 06:17:08;;;;;;;4.55;1.70;;;15.20;99.90;;;;;;5113675;27;20067;-56
2023/07/20 06:19:35;;;;;;;6.15;1.88;;;15.30;99.90;;;;;;5129506;27;20049;-54
2023/07/20 06:22:02;;;;;;;6.03;1.50;;;15.60;99.90;;;;;;5130327;27;20086;-57
2023/07/20 06:24:28;;;;;;;3.72;1.30;;;15.90;99.90;;;;;;5131632;27;20564;-56
2023/07/20 06:26:54;;;;;;;1.65;1.00;;;16.30;99.90;;;;;;5132576;27;20063;-57
2023/07/20 06:29:19;;;;;;;4.00;1.08;;;16.60;99.90;;;;;;5129260;27;20043;-57
2023/07/20 06:31:45;;;;;;;4.78;1.10;;;17.10;99.90;;;;;;5130970;27;20463;-56
2023/07/20 06:34:11;;;;;;;5.55;1.08;;;17.30;99.90;;;;;;5131029;27;20568;-57
2023/07/20 06:36:36;;;;;;;2.63;0.95;;;17.50;99.90;;;;;;5129984;27;20677;-57
2023/07/20 06:39:02;;;;;;;2.60;1.02;;;17.60;99.90;;;;;;5130335;27;20047;-57
2023/07/20 06:41:28;;;;;;;3.78;1.23;;;17.20;99.90;;;;;;5131344;27;20047;-56
2023/07/20 06:43:57;;;;;;;3.92;1.20;;;17.50;99.90;;;;;;5130915;27;20054;-57
2023/07/20 06:46:27;;;;;;;2.75;1.00;;;17.30;99.90;;;;;;5129724;27;20134;-57
2023/07/20 06:48:53;;;;;;;7.20;1.23;;;17.40;99.90;;;;;;5129685;27;20645;-57
2023/07/20 06:51:19;;;;;;;3.50;0.95;;;17.30;99.90;;;;;;5130738;27;20054;-56
2023/07/20 06:53:45;;;;;;;3.08;1.00;;;17.50;99.90;;;;;;5132342;27;20341;-57
2023/07/20 06:56:11;;;;;;;7.15;1.20;;;17.80;99.90;;;;;;5130561;27;20039;-59
2023/07/20 06:58:37;;;;;;;5.00;0.90;;;18.20;99.90;;;;;;5113132;27;20275;-57
2023/07/20 07:01:07;;;;;;;2.95;0.90;;;18.40;99.90;;;;;;5129815;27;20072;-57
2023/07/20 07:03:33;;;;;;;3.42;0.90;;;18.80;99.90;;;;;;5130856;27;20401;-57
2023/07/20 07:05:59;;;;;;;4.25;1.13;;;19.20;99.90;;;;;;5131775;27;20709;-57
2023/07/20 07:08:25;;;;;;;2.85;1.00;;;19.60;99.90;;;;;;5129663;27;20438;-56
2023/07/20 07:10:52;;;;;;;4.40;1.10;;;20.70;99.90;;;;;;5129256;27;20043;-56
2023/07/20 07:13:19;;;;;;;5.40;1.10;;;22.00;99.90;;;;;;5131718;27;20121;-57
2023/07/20 07:15:45;;;;;;;3.15;1.13;;;22.90;99.90;;;;;;5130395;27;20050;-56
2023/07/20 07:18:11;;;;;;;3.60;1.15;;;23.30;99.90;;;;;;5128575;27;20074;-56
2023/07/20 07:20:37;;;;;;;2.72;1.38;;;23.90;99.90;;;;;;5129307;27;20145;-57
2023/07/20 07:23:03;;;;;;;5.60;1.85;;;24.60;99.90;;;;;;5129020;27;20059;-56
2023/07/20 07:25:28;;;;;;;4.90;1.83;;;24.90;99.90;;;;;;5128939;27;20057;-57
2023/07/20 07:27:55;;;;;;;3.13;1.40;;;24.60;99.90;;;;;;5135519;27;20054;-57
2023/07/20 07:30:21;;;;;;;5.22;1.50;;;24.10;99.90;;;;;;5134719;27;20037;-57
2023/07/20 07:32:47;;;;;;;6.88;1.40;;;24.90;99.90;;;;;;5135741;27;20034;-56
2023/07/20 07:35:13;;;;;;;4.95;1.35;;;25.80;99.90;;;;;;5133964;27;20511;-57
2023/07/20 07:37:39;;;;;;;7.95;1.60;;;26.30;99.90;;;;;;5134773;27;20034;-57
2023/07/20 07:40:06;;;;;;;4.32;1.75;;;26.90;99.90;;;;;;5135222;27;20096;-57
2023/07/20 07:42:32;;;;;;;6.43;1.65;;;27.10;99.90;;;;;;5116061;27;20510;-57
2023/07/20 07:44:58;;;;;;;4.18;1.45;;;27.00;99.90;;;;;;5114939;27;20195;-57
2023/07/20 07:47:23;;;;;;;4.88;1.33;;;27.40;99.90;;;;;;5132465;27;20051;-57
2023/07/20 07:49:49;;;;;;;3.28;1.35;;;27.30;99.90;;;;;;5134179;27;20058;-56
2023/07/20 07:52:15;;;;;;;4.90;1.63;;;27.60;99.90;;;;;;5134803;27;20485;-58
2023/07/20 07:54:41;;;;;;;5.45;1.25;;;27.20;99.90;;;;;;5134444;27;20043;-58
2023/07/20 07:57:07;;;;;;;5.20;1.50;;;27.50;99.90;;;;;;5135822;27;20072;-56
2023/07/20 07:59:36;;;;;;;5.35;1.80;;;26.70;99.90;;;;;;5135269;27;20095;-57
2023/07/20 08:02:04;;;;;;;4.45;1.50;;;26.10;99.90;;;;;;5135030;27;20084;-57
2023/07/20 08:04:30;;;;;;;6.53;1.63;;;26.50;99.90;;;;;;5134930;27;20396;-58
2023/07/20 08:06:56;;;;;;;3.88;1.30;;;23.60;99.90;;;;;;5134961;27;20171;-57
2023/07/20 08:09:22;;;;;;;7.45;1.63;;;23.60;99.90;;;;;;5117345;27;20448;-59
2023/07/20 08:11:48;;;;;;;6.13;1.67;;;22.90;99.90;;;;;;5136040;27;20075;-58
2023/07/20 08:14:14;;;;;;;3.97;1.60;;;22.00;99.90;;;;;;5134687;27;20047;-58
2023/07/20 08:16:39;;;;;;;7.95;1.90;;;23.20;99.90;;;;;;5135615;27;20051;-57
2023/07/20 08:19:05;;;;;;;4.60;1.70;;;21.40;99.90;;;;;;5135389;27;20117;-57
2023/07/20 08:21:31;;;;;;;4.93;1.60;;;22.00;99.90;;;;;;5134607;27;20522;-58
2023/07/20 08:23:56;;;;;;;5.20;1.35;;;22.50;99.90;;;;;;5135037;27;20407;-57
2023/07/20 08:26:24;;;;;;;5.68;1.40;;;22.70;99.90;;;;;;5135869;27;21034;-57
2023/07/20 08:28:49;;;;;;;4.80;1.30;;;22.90;99.90;;;;;;5136211;27;20465;-57
2023/07/20 08:31:15;;;;;;;5.65;1.67;;;22.90;99.90;;;;;;5134614;27;20487;-57
2023/07/20 08:33:41;;;;;;;3.60;1.40;;;22.60;99.90;;;;;;5131823;27;20061;-57
2023/07/20 08:36:07;;;;;;;3.28;1.30;;;23.30;99.90;;;;;;5134940;27;20043;-58
2023/07/20 08:38:33;;;;;;;3.28;1.20;;;24.00;99.90;;;;;;5134488;27;20042;-57
2023/07/20 08:40:59;;;;;;;5.10;1.30;;;25.20;99.90;;;;;;5134252;27;20213;-57
2023/07/20 08:43:27;;;;;;;3.47;0.98;;;25.00;99.90;;;;;;5133586;27;20526;-57
2023/07/20 08:45:55;;;;;;;4.13;0.93;;;24.50;99.90;;;;;;5133902;27;20039;-57
2023/07/20 08:48:22;;;;;;;5.43;1.27;;;23.60;99.90;;;;;;5131927;27;20370;-57
2023/07/20 08:50:51;;;;;;;5.60;0.98;;;22.60;99.90;;;;;;5133849;27;20047;-57
2023/07/20 08:53:17;;;;;;;3.65;0.90;;;21.70;99.90;;;;;;5135218;27;20034;-57
2023/07/20 08:55:46;;;;;;;3.22;0.98;;;21.40;99.90;;;;;;5134159;27;20414;-58
2023/07/20 08:58:14;;;;;;;4.35;1.30;;;21.10;99.90;;;;;;5135160;27;20064;-57
2023/07/20 09:00:41;;;;;;;4.03;1.08;;;21.30;99.90;;;;;;5133628;27;20035;-57
2023/07/20 09:03:08;;;;;;;3.35;1.00;;;20.90;99.90;;;;;;5132941;27;20379;-57
2023/07/20 09:05:35;;;;;;;3.58;0.95;;;21.10;99.90;;;;;;5134127;27;20625;-57
2023/07/20 09:08:03;;;;;;;2.30;0.75;;;22.90;99.90;;;;;;5135038;27;20258;-57
2023/07/20 09:10:29;;;;;;;2.88;0.60;;;20.70;99.90;;;;;;5133770;27;20023;-61
2023/07/20 09:12:55;;;;;;;3.72;1.10;;;20.60;99.90;;;;;;5134034;27;20046;-57
2023/07/20 09:15:22;;;;;;;2.40;0.82;;;20.70;99.90;;;;;;5133961;27;20470;-57
2023/07/20 09:17:49;;;;;;;3.47;1.00;;;21.40;99.90;;;;;;5132911;27;20588;-57
2023/07/20 09:20:18;;;;;;;3.22;0.80;;;21.70;99.90;;;;;;5133704;27;20076;-57
2023/07/20 09:22:44;;;;;;;3.33;0.75;;;22.70;99.90;;;;;;5116255;27;20756;-57
2023/07/20 09:25:14;;;;;;;4.65;0.90;;;22.70;99.90;;;;;;5135016;27;20439;-57
2023/07/20 09:27:42;;;;;;;1.83;0.70;;;22.20;99.90;;;;;;5136162;27;20515;-57
2023/07/20 09:30:09;;;;;;;3.60;0.80;;;21.80;99.90;;;;;;5133939;27;20087;-57
2023/07/20 09:32:50;;;;;;;2.28;0.75;;;21.70;99.90;;;;;;5133889;27;20039;-58
2023/07/20 09:35:21;;;;;;;2.63;0.82;;;21.50;99.90;;;;;;5132030;27;20290;-57
2023/07/20 09:37:59;;;;;;;5.50;0.90;;;21.80;99.90;;;;;;5134487;27;20573;-57
2023/07/20 09:40:27;;;;;;;4.05;0.80;;;21.80;99.90;;;;;;5133276;27;20103;-56
2023/07/20 09:43:00;;;;;;;4.13;1.00;;;21.70;99.90;;;;;;5114388;27;20074;-56
2023/07/20 09:45:39;;;;;;;3.70;1.00;;;21.30;99.90;;;;;;5134148;27;20399;-57
2023/07/20 09:48:06;;;;;;;2.85;0.85;;;21.20;99.90;;;;;;5132995;27;20419;-57
2023/07/20 09:50:51;;;;;;;3.55;0.80;;;21.20;99.90;;;;;;5132084;27;20054;-57
2023/07/20 09:53:18;;;;;;;1.58;0.50;;;21.70;99.90;;;;;;5132559;27;20258;-57
2023/07/20 09:55:47;;;;;;;13.82;1.73;;;22.20;99.90;;;;;;5133574;27;20068;-57
2023/07/20 09:58:15;;;;;;;4.70;0.70;;;22.10;99.90;;;;;;5133974;27;20100;-57
2023/07/20 10:00:46;;;;;;;4.47;0.90;;;22.10;99.90;;;;;;5133004;27;20085;-58
2023/07/20 10:03:19;;;;;;;;;;;22.00;99.90;;;;;;5113030;27;20038;-58
2023/07/20 10:05:54;;;;;;;6.35;0.82;;;21.80;99.90;;;;;;5131436;27;20435;-57
2023/07/20 10:08:24;;;;;;;2.92;0.80;;;21.50;99.90;;;;;;5109030;27;20134;-57
2023/07/20 10:10:50;;;;;;;2.13;0.70;;;21.00;99.90;;;;;;5131736;27;20891;-57
2023/07/20 10:13:27;;;;;;;2.45;0.70;;;21.00;99.90;;;;;;5113065;27;20157;-57
2023/07/20 10:16:06;;;;;;;2.97;1.00;;;21.00;99.90;;;;;;5131662;27;20122;-57
2023/07/20 10:18:42;;;;;;;6.72;1.48;;;20.60;99.90;;;;;;5110367;27;20031;-57
2023/07/20 10:21:10;;;;;;;3.15;0.90;;;20.70;99.90;;;;;;5130942;27;20102;-57
2023/07/20 10:23:36;;;;;;;3.47;0.63;;;20.80;99.90;;;;;;5130484;27;20031;-56
2023/07/20 10:26:02;;;;;;;2.53;0.70;;;21.30;99.90;;;;;;5130299;27;20054;-57
2023/07/20 10:28:28;;;;;;;4.53;1.10;;;21.50;99.90;;;;;;5132146;27;20051;-56
2023/07/20 10:30:54;;;;;;;3.30;0.80;;;22.00;99.90;;;;;;5112942;27;20056;-57
2023/07/20 10:33:21;;;;;;;3.80;1.00;;;22.40;99.90;;;;;;5130254;27;20622;-57
2023/07/20 10:35:54;;;;;;;2.17;0.70;;;22.70;99.90;;;;;;5130733;27;20036;-57
2023/07/20 10:38:20;;;;;;;5.03;1.13;;;22.90;99.90;;;;;;5130289;27;20058;-57
2023/07/20 10:40:55;;;;;;;3.03;0.82;;;22.50;99.90;;;;;;5131054;27;20043;-56
2023/07/20 10:43:21;;;;;;;4.43;1.00;;;21.80;99.90;;;;;;5129229;27;20039;-57
2023/07/20 10:45:53;;;;;;;3.90;0.93;;;21.40;99.90;;;;;;5130358;27;20132;-57
2023/07/20 10:48:20;;;;;;;3.70;0.90;;;21.30;99.90;;;;;;5130337;27;20744;-57
2023/07/20 10:51:16;;;;;;;4.68;0.90;;;21.30;99.90;;;;;;5131737;27;20042;-57
2023/07/20 10:53:42;;;;;;;3.28;1.15;;;21.20;99.90;;;;;;5130183;27;20049;-56
2023/07/20 10:56:19;;;;;;;2.85;0.88;;;21.70;99.90;;;;;;5132349;27;20047;-57
2023/07/20 10:58:44;;;;;;;2.83;1.02;;;22.10;99.90;;;;;;5131775;27;20038;-57
2023/07/20 11:01:14;;;;;;;3.55;0.90;;;21.80;99.90;;;;;;5130263;27;21014;-56
2023/07/20 11:03:40;;;;;;;3.92;1.02;;;21.50;99.90;;;;;;5131613;27;20422;-56
2023/07/20 11:06:24;;;;;;;4.60;1.20;;;21.30;99.90;;;;;;5112047;27;20042;-57
2023/07/20 11:09:10;;;;;;;5.75;0.98;;;21.90;99.90;;;;;;5130395;27;20042;-57
2023/07/20 11:11:38;;;;;;;2.28;0.80;;;23.00;99.90;;;;;;5130853;27;20349;-57
2023/07/20 11:14:07;;;;;;;3.33;0.93;;;21.90;99.90;;;;;;5130726;27;20070;-57
2023/07/20 11:16:44;;;;;;;6.78;1.25;;;21.90;99.90;;;;;;5131629;27;20477;-58
2023/07/20 11:19:22;;;;;;;2.28;0.80;;;22.00;99.90;;;;;;5113438;27;20035;-57
2023/07/20 11:21:51;;;;;;;4.40;1.00;;;21.90;99.90;;;;;;5131326;27;20640;-58
2023/07/20 11:24:18;;;;;;;4.47;0.98;;;21.50;99.90;;;;;;5130637;27;20231;-57
2023/07/20 11:26:44;;;;;;;3.65;0.98;;;21.40;99.90;;;;;;5130407;27;20057;-58
2023/07/20 11:29:11;;;;;;;3.10;1.00;;;20.90;99.90;;;;;;5115313;27;20574;-58
2023/07/20 11:31:41;;;;;;;3.13;1.15;;;20.80;99.90;;;;;;5130520;27;20223;-58
2023/07/20 11:34:20;;;;;;;3.28;1.20;;;20.70;99.90;;;;;;5093964;27;20875;-60
2023/07/20 11:36:50;;;;;;;4.78;1.17;;;20.90;99.90;;;;;;5129924;27;20042;-57
2023/07/20 11:39:22;;;;;;;2.23;0.97;;;20.80;99.90;;;;;;5130517;27;20586;-57
2023/07/20 11:41:53;;;;;;;3.10;1.45;;;19.20;99.90;;;;;;5131032;27;20070;-58
2023/07/20 11:44:26;;;;;;;4.93;0.90;;;20.30;99.90;;;;;;5129761;27;20081;-57
2023/07/20 11:47:01;;;;;;;3.55;1.00;;;20.30;99.90;;;;;;5129531;27;20807;-57
2023/07/20 11:49:27;;;;;;;6.53;0.98;;;20.30;99.90;;;;;;5129753;27;20111;-58
2023/07/20 11:51:53;;;;;;;3.95;1.08;;;20.20;99.90;;;;;;5128896;27;20058;-56
2023/07/20 11:54:19;;;;;;;5.18;1.15;;;20.20;99.90;;;;;;5130534;27;20047;-57
2023/07/20 11:56:44;;;;;;;2.83;0.85;;;20.00;99.90;;;;;;5130898;27;20035;-57
2023/07/20 11:59:10;;;;;;;3.25;1.00;;;20.20;99.90;;;;;;5130683;27;20049;-58
2023/07/20 12:01:36;;;;;;;4.68;1.00;;;20.50;99.90;;;;;;5130452;27;20460;-58
2023/07/20 12:04:03;;;;;;;1.85;0.82;;;20.80;99.90;;;;;;5129651;27;20625;-58
2023/07/20 12:06:30;;;;;;;2.97;0.98;;;21.20;99.90;;;;;;5131207;27;20054;-57
2023/07/20 12:08:57;;;;;;;3.60;1.00;;;21.30;99.90;;;;;;5130826;27;20104;-57
2023/07/20 12:11:37;;;;;;;5.00;1.10;;;21.00;99.90;;;;;;5130230;27;20124;-58
2023/07/20 12:14:07;;;;;;;4.82;1.10;;;20.60;99.90;;;;;;5134333;27;20094;-56
2023/07/20 12:16:34;;;;;;;3.17;1.00;;;20.20;99.90;;;;;;5134767;27;20034;-59
2023/07/20 12:19:05;;;;;;;5.78;1.58;;;19.70;99.90;;;;;;5132541;27;20478;-61
2023/07/20 12:21:33;;;;;;;5.78;1.40;;;19.20;99.90;;;;;;5134810;27;20050;-61
2023/07/20 12:23:59;;;;;;;3.20;1.20;;;18.80;99.90;;;;;;5134865;27;20065;-62
2023/07/20 12:26:26;;;;;;;4.10;1.20;;;18.70;99.90;;;;;;5136010;27;20402;-62
2023/07/20 12:28:52;;;;;;;5.40;1.50;;;18.40;99.90;;;;;;5135997;27;20058;-61
2023/07/20 12:31:18;;;;;;;2.70;1.10;;;18.20;99.90;;;;;;5135200;27;20050;-61
2023/07/20 12:33:44;;;;;;;4.82;1.33;;;18.30;99.90;;;;;;5134387;27;20067;-61
2023/07/20 12:36:10;;;;;;;2.92;1.10;;;18.50;99.90;;;;;;5134621;27;20065;-61
2023/07/20 12:38:36;;;;;;;3.75;1.00;;;19.00;99.90;;;;;;5133158;27;20908;-61
2023/07/20 12:41:03;;;;;;;2.90;1.20;;;19.30;99.90;;;;;;5134748;27;20107;-61
2023/07/20 12:43:29;;;;;;;4.65;1.30;;;19.50;99.90;;;;;;5134917;27;20047;-61
2023/07/20 12:45:56;;;;;;;6.15;1.45;;;19.30;99.90;;;;;;5133753;27;20050;-61
2023/07/20 12:48:22;;;;;;;3.55;1.15;;;19.10;99.90;;;;;;5133177;27;20115;-60
2023/07/20 12:50:48;;;;;;;3.30;1.05;;;19.20;99.90;;;;;;5135222;27;20723;-59